EUS35RD LFBD-LEMD
Flight info
| Callsign | EUS35RD |
|---|---|
| Flight time | 0h 59m |
| Altitude | 33000 |
| Route | VAVIX DCT NETUK N857 VASUM DCT BANEV |
| Aircraft | B738/M-SDE2E3FGHIRWXY/LB1 |
Departure
| Time | 2026-05-05 14:29 |
|---|---|
| Airport | Bordeaux–Mérignac Airport (LFBD) |
Arrival
| Time | 2026-05-05 15:28 |
|---|---|
| Airport | Adolfo Suárez Madrid–Barajas Airport (LEMD) |
| Time | Latitude | Longitude | Altitude | Speed | Heading |
|---|---|---|---|---|---|
| 2026-05-05 14:08 | 44.83127 | -0.70442 | 166 ft | 0 kts | 118° |
| 2026-05-05 14:19 | 44.83137 | -0.70468 | 166 ft | 4 kts | 119° |
| 2026-05-05 14:20 | 44.83149 | -0.70499 | 166 ft | 2 kts | 119° |
| 2026-05-05 14:20 | 44.83162 | -0.70520 | 166 ft | 4 kts | 180° |
| 2026-05-05 14:20 | 44.83187 | -0.70511 | 166 ft | 4 kts | 198° |
| 2026-05-05 14:20 | 44.83196 | -0.70507 | 166 ft | 1 kts | 193° |
| 2026-05-05 14:22 | 44.83186 | -0.70514 | 166 ft | 5 kts | 209° |
| 2026-05-05 14:23 | 44.83141 | -0.70573 | 167 ft | 12 kts | 224° |
| 2026-05-05 14:23 | 44.83078 | -0.70661 | 168 ft | 13 kts | 225° |
| 2026-05-05 14:23 | 44.83010 | -0.70756 | 168 ft | 14 kts | 218° |
| 2026-05-05 14:24 | 44.82794 | -0.71190 | 168 ft | 18 kts | 226° |
| 2026-05-05 14:24 | 44.82704 | -0.71317 | 170 ft | 18 kts | 225° |
| 2026-05-05 14:25 | 44.82613 | -0.71446 | 170 ft | 19 kts | 225° |
| 2026-05-05 14:25 | 44.82516 | -0.71587 | 170 ft | 21 kts | 226° |
| 2026-05-05 14:25 | 44.82443 | -0.71684 | 170 ft | 10 kts | 237° |
| 2026-05-05 14:25 | 44.82463 | -0.71722 | 170 ft | 4 kts | 36° |
| 2026-05-05 14:26 | 44.82480 | -0.71669 | 170 ft | 9 kts | 66° |
| 2026-05-05 14:26 | 44.82540 | -0.71549 | 170 ft | 20 kts | 43° |
| 2026-05-05 14:26 | 44.82651 | -0.71395 | 170 ft | 24 kts | 45° |
| 2026-05-05 14:26 | 44.82773 | -0.71217 | 167 ft | 27 kts | 45° |
| 2026-05-05 14:27 | 44.82900 | -0.71038 | 169 ft | 23 kts | 46° |
| 2026-05-05 14:27 | 44.82919 | -0.70834 | 169 ft | 23 kts | 106° |
| 2026-05-05 14:27 | 44.82825 | -0.70390 | 169 ft | 26 kts | 106° |
| 2026-05-05 14:28 | 44.82774 | -0.70144 | 169 ft | 25 kts | 105° |
| 2026-05-05 14:28 | 44.82730 | -0.69962 | 168 ft | 15 kts | 134° |
| 2026-05-05 14:28 | 44.82629 | -0.69966 | 171 ft | 15 kts | 201° |
| 2026-05-05 14:28 | 44.82557 | -0.70059 | 171 ft | 15 kts | 268° |
| 2026-05-05 14:29 | 44.82593 | -0.70236 | 171 ft | 39 kts | 286° |
| 2026-05-05 14:29 | 44.82750 | -0.70988 | 166 ft | 118 kts | 286° |
| 2026-05-05 14:29 | 44.82837 | -0.71401 | 168 ft | 141 kts | 287° |
| 2026-05-05 14:29 | 44.83315 | -0.73771 | 1472 ft | 152 kts | 280° |
| 2026-05-05 14:30 | 44.83375 | -0.75246 | 2386 ft | 155 kts | 261° |
| 2026-05-05 14:30 | 44.82723 | -0.76620 | 2766 ft | 196 kts | 214° |
| 2026-05-05 14:30 | 44.81287 | -0.76973 | 3034 ft | 232 kts | 170° |
| 2026-05-05 14:30 | 44.79737 | -0.76047 | 3432 ft | 256 kts | 160° |
| 2026-05-05 14:31 | 44.78023 | -0.75209 | 4110 ft | 268 kts | 166° |
| 2026-05-05 14:31 | 44.76223 | -0.74538 | 5165 ft | 267 kts | 169° |
| 2026-05-05 14:31 | 44.74397 | -0.73968 | 6098 ft | 271 kts | 171° |
| 2026-05-05 14:31 | 44.72523 | -0.73436 | 6964 ft | 277 kts | 171° |
| 2026-05-05 14:32 | 44.70623 | -0.72914 | 7880 ft | 280 kts | 171° |
| 2026-05-05 14:32 | 44.68690 | -0.72470 | 8766 ft | 283 kts | 176° |
| 2026-05-05 14:32 | 44.66714 | -0.72271 | 9662 ft | 287 kts | 179° |
| 2026-05-05 14:32 | 44.64703 | -0.72146 | 10407 ft | 295 kts | 180° |
| 2026-05-05 14:33 | 44.62558 | -0.72024 | 10628 ft | 322 kts | 179° |
| 2026-05-05 14:33 | 44.60239 | -0.71881 | 10937 ft | 343 kts | 179° |
| 2026-05-05 14:33 | 44.57828 | -0.71714 | 11605 ft | 350 kts | 179° |
| 2026-05-05 14:33 | 44.55386 | -0.71533 | 12467 ft | 353 kts | 179° |
| 2026-05-05 14:34 | 44.52927 | -0.71346 | 13339 ft | 355 kts | 179° |
| 2026-05-05 14:34 | 44.50473 | -0.71157 | 14182 ft | 359 kts | 179° |
| 2026-05-05 14:34 | 44.47972 | -0.70963 | 15033 ft | 361 kts | 179° |
| 2026-05-05 14:34 | 44.45463 | -0.70767 | 15908 ft | 363 kts | 178° |
| 2026-05-05 14:35 | 44.42933 | -0.70570 | 16761 ft | 365 kts | 178° |
| 2026-05-05 14:35 | 44.40387 | -0.70373 | 17588 ft | 368 kts | 178° |
| 2026-05-05 14:35 | 44.37817 | -0.70173 | 18374 ft | 372 kts | 178° |
| 2026-05-05 14:35 | 44.35220 | -0.69973 | 19071 ft | 375 kts | 178° |
| 2026-05-05 14:36 | 44.32600 | -0.69771 | 19782 ft | 378 kts | 178° |
| 2026-05-05 14:36 | 44.29962 | -0.69593 | 20525 ft | 381 kts | 181° |
| 2026-05-05 14:36 | 44.27340 | -0.70179 | 21197 ft | 384 kts | 198° |
| 2026-05-05 14:36 | 44.24943 | -0.71843 | 21886 ft | 386 kts | 212° |
| 2026-05-05 14:37 | 44.22685 | -0.73888 | 22531 ft | 390 kts | 213° |
| 2026-05-05 14:37 | 44.20418 | -0.76015 | 23144 ft | 394 kts | 213° |
| 2026-05-05 14:37 | 44.18168 | -0.78141 | 23714 ft | 397 kts | 213° |
| 2026-05-05 14:37 | 44.15866 | -0.80306 | 24227 ft | 400 kts | 213° |
| 2026-05-05 14:38 | 44.13542 | -0.82473 | 24753 ft | 402 kts | 213° |
| 2026-05-05 14:38 | 44.11201 | -0.84641 | 25278 ft | 404 kts | 213° |
| 2026-05-05 14:38 | 44.08845 | -0.86811 | 25773 ft | 407 kts | 213° |
| 2026-05-05 14:38 | 44.06472 | -0.88987 | 26229 ft | 410 kts | 213° |
| 2026-05-05 14:39 | 44.04084 | -0.91173 | 26704 ft | 413 kts | 213° |
| 2026-05-05 14:39 | 44.01674 | -0.93373 | 27171 ft | 415 kts | 213° |
| 2026-05-05 14:39 | 43.99280 | -0.95558 | 27616 ft | 418 kts | 213° |
| 2026-05-05 14:39 | 43.96843 | -0.97779 | 28058 ft | 420 kts | 213° |
| 2026-05-05 14:40 | 43.94392 | -1.00011 | 28487 ft | 423 kts | 213° |
| 2026-05-05 14:40 | 43.91928 | -1.02253 | 28916 ft | 424 kts | 213° |
| 2026-05-05 14:40 | 43.89460 | -1.04496 | 29491 ft | 423 kts | 213° |
| 2026-05-05 14:40 | 43.87008 | -1.06722 | 30135 ft | 420 kts | 214° |
| 2026-05-05 14:41 | 43.84568 | -1.08936 | 30635 ft | 418 kts | 214° |
| 2026-05-05 14:41 | 43.82138 | -1.11138 | 31002 ft | 419 kts | 214° |
| 2026-05-05 14:41 | 43.79688 | -1.13356 | 31363 ft | 420 kts | 214° |
| 2026-05-05 14:41 | 43.77240 | -1.15570 | 31770 ft | 420 kts | 214° |
| 2026-05-05 14:42 | 43.74801 | -1.17774 | 32212 ft | 419 kts | 214° |
| 2026-05-05 14:42 | 43.72353 | -1.19983 | 32620 ft | 419 kts | 214° |
| 2026-05-05 14:42 | 43.69902 | -1.22194 | 32991 ft | 420 kts | 214° |
| 2026-05-05 14:42 | 43.67454 | -1.24399 | 33403 ft | 420 kts | 214° |
| 2026-05-05 14:43 | 43.65007 | -1.26601 | 33821 ft | 419 kts | 214° |
| 2026-05-05 14:43 | 43.62553 | -1.28808 | 33969 ft | 424 kts | 214° |
| 2026-05-05 14:43 | 43.57586 | -1.33268 | 34009 ft | 424 kts | 214° |
| 2026-05-05 14:44 | 43.52686 | -1.37656 | 34022 ft | 418 kts | 214° |
| 2026-05-05 14:44 | 43.47835 | -1.41995 | 34023 ft | 419 kts | 214° |
| 2026-05-05 14:45 | 43.42936 | -1.46368 | 34019 ft | 420 kts | 215° |
| 2026-05-05 14:45 | 43.38018 | -1.50750 | 34019 ft | 421 kts | 215° |
| 2026-05-05 14:46 | 43.33101 | -1.55123 | 34030 ft | 421 kts | 215° |
| 2026-05-05 14:46 | 43.28140 | -1.59425 | 34009 ft | 423 kts | 210° |
| 2026-05-05 14:47 | 43.22596 | -1.62172 | 34022 ft | 427 kts | 194° |
| 2026-05-05 14:47 | 43.16682 | -1.63220 | 34006 ft | 429 kts | 190° |
| 2026-05-05 14:48 | 43.10758 | -1.64115 | 34017 ft | 427 kts | 190° |
| 2026-05-05 14:48 | 43.04867 | -1.65049 | 33990 ft | 426 kts | 190° |
| 2026-05-05 14:49 | 42.98985 | -1.66012 | 33989 ft | 425 kts | 191° |
| 2026-05-05 14:49 | 42.93109 | -1.66978 | 33993 ft | 425 kts | 191° |
| 2026-05-05 14:50 | 42.87235 | -1.67941 | 33991 ft | 425 kts | 191° |
| 2026-05-05 14:50 | 42.81359 | -1.68902 | 33990 ft | 426 kts | 191° |
| 2026-05-05 14:51 | 42.75472 | -1.69900 | 33985 ft | 425 kts | 194° |
| 2026-05-05 14:51 | 42.69934 | -1.72393 | 33999 ft | 417 kts | 210° |
| 2026-05-05 14:52 | 42.64746 | -1.75948 | 33988 ft | 418 kts | 210° |
| 2026-05-05 14:52 | 42.59545 | -1.79496 | 33987 ft | 418 kts | 210° |
| 2026-05-05 14:53 | 42.55212 | -1.82409 | 33979 ft | 418 kts | 210° |
| 2026-05-05 14:53 | 42.49128 | -1.86476 | 33974 ft | 417 kts | 210° |
| 2026-05-05 14:54 | 42.43953 | -1.89930 | 33973 ft | 418 kts | 210° |
| 2026-05-05 14:54 | 42.39590 | -1.92839 | 33964 ft | 417 kts | 210° |
| 2026-05-05 14:55 | 42.33546 | -1.96867 | 33969 ft | 416 kts | 210° |
| 2026-05-05 14:55 | 42.29194 | -1.99769 | 33969 ft | 416 kts | 210° |
| 2026-05-05 14:56 | 42.24007 | -2.03218 | 33974 ft | 415 kts | 210° |
| 2026-05-05 14:56 | 42.18856 | -2.06630 | 33966 ft | 415 kts | 210° |
| 2026-05-05 14:57 | 42.13672 | -2.10058 | 33976 ft | 415 kts | 210° |
| 2026-05-05 14:57 | 42.08487 | -2.13482 | 33962 ft | 415 kts | 210° |
| 2026-05-05 14:58 | 42.03312 | -2.16894 | 33960 ft | 414 kts | 210° |
| 2026-05-05 14:58 | 41.98128 | -2.20306 | 33968 ft | 415 kts | 210° |
| 2026-05-05 14:59 | 41.92942 | -2.23713 | 33956 ft | 415 kts | 210° |
| 2026-05-05 14:59 | 41.87749 | -2.27119 | 33966 ft | 415 kts | 210° |
| 2026-05-05 15:00 | 41.83430 | -2.29946 | 33954 ft | 416 kts | 210° |
| 2026-05-05 15:00 | 41.77369 | -2.33909 | 33515 ft | 420 kts | 210° |
| 2026-05-05 15:01 | 41.74763 | -2.35608 | 33096 ft | 413 kts | 210° |
| 2026-05-05 15:01 | 41.72191 | -2.37282 | 32606 ft | 409 kts | 210° |
| 2026-05-05 15:01 | 41.69643 | -2.38940 | 32142 ft | 404 kts | 210° |
| 2026-05-05 15:01 | 41.67129 | -2.40576 | 31678 ft | 400 kts | 210° |
| 2026-05-05 15:02 | 41.64640 | -2.42194 | 31228 ft | 396 kts | 210° |
| 2026-05-05 15:02 | 41.62175 | -2.43796 | 30778 ft | 392 kts | 210° |
| 2026-05-05 15:02 | 41.59733 | -2.45382 | 30328 ft | 389 kts | 210° |
| 2026-05-05 15:02 | 41.57305 | -2.46959 | 29867 ft | 386 kts | 210° |
| 2026-05-05 15:03 | 41.54919 | -2.48507 | 29334 ft | 382 kts | 210° |
| 2026-05-05 15:03 | 41.52541 | -2.50046 | 28849 ft | 377 kts | 210° |
| 2026-05-05 15:03 | 41.50192 | -2.51565 | 28377 ft | 373 kts | 210° |
| 2026-05-05 15:03 | 41.47865 | -2.53061 | 27911 ft | 369 kts | 210° |
| 2026-05-05 15:04 | 41.45562 | -2.54535 | 27466 ft | 365 kts | 210° |
| 2026-05-05 15:04 | 41.43282 | -2.55993 | 27018 ft | 362 kts | 210° |
| 2026-05-05 15:04 | 41.41023 | -2.57438 | 26582 ft | 359 kts | 210° |
| 2026-05-05 15:04 | 41.38788 | -2.58868 | 26148 ft | 356 kts | 210° |
| 2026-05-05 15:05 | 41.34362 | -2.61694 | 25313 ft | 350 kts | 209° |
| 2026-05-05 15:05 | 41.32060 | -2.62755 | 24886 ft | 354 kts | 193° |
| 2026-05-05 15:05 | 41.29592 | -2.62870 | 24519 ft | 356 kts | 181° |
| 2026-05-05 15:06 | 41.27120 | -2.62663 | 24113 ft | 355 kts | 180° |
| 2026-05-05 15:06 | 41.24665 | -2.62400 | 23716 ft | 353 kts | 179° |
| 2026-05-05 15:06 | 41.22221 | -2.62136 | 23261 ft | 351 kts | 179° |
| 2026-05-05 15:06 | 41.19795 | -2.61886 | 22809 ft | 349 kts | 179° |
| 2026-05-05 15:07 | 41.17412 | -2.61654 | 22420 ft | 346 kts | 180° |
| 2026-05-05 15:07 | 41.15028 | -2.61432 | 22032 ft | 343 kts | 180° |
| 2026-05-05 15:07 | 41.12647 | -2.61216 | 21620 ft | 342 kts | 180° |
| 2026-05-05 15:07 | 41.10279 | -2.61004 | 21231 ft | 341 kts | 180° |
| 2026-05-05 15:08 | 41.07901 | -2.60794 | 20853 ft | 346 kts | 180° |
| 2026-05-05 15:08 | 41.05469 | -2.60580 | 20434 ft | 354 kts | 180° |
| 2026-05-05 15:08 | 41.02999 | -2.60360 | 20029 ft | 354 kts | 180° |
| 2026-05-05 15:08 | 41.00549 | -2.60141 | 19615 ft | 351 kts | 180° |
| 2026-05-05 15:09 | 40.98119 | -2.59924 | 19212 ft | 349 kts | 180° |
| 2026-05-05 15:09 | 40.95707 | -2.59710 | 18809 ft | 346 kts | 180° |
| 2026-05-05 15:09 | 40.93311 | -2.59497 | 18405 ft | 344 kts | 180° |
| 2026-05-05 15:09 | 40.90930 | -2.59287 | 17971 ft | 342 kts | 180° |
| 2026-05-05 15:10 | 40.88565 | -2.59077 | 17537 ft | 339 kts | 180° |
| 2026-05-05 15:10 | 40.86218 | -2.58869 | 17128 ft | 336 kts | 180° |
| 2026-05-05 15:10 | 40.83917 | -2.58997 | 16721 ft | 328 kts | 198° |
| 2026-05-05 15:10 | 40.81868 | -2.60168 | 16354 ft | 318 kts | 217° |
| 2026-05-05 15:11 | 40.80216 | -2.62067 | 15972 ft | 312 kts | 227° |
| 2026-05-05 15:11 | 40.78716 | -2.64077 | 15581 ft | 310 kts | 228° |
| 2026-05-05 15:11 | 40.77203 | -2.66151 | 15188 ft | 309 kts | 228° |
| 2026-05-05 15:11 | 40.75719 | -2.68177 | 14831 ft | 306 kts | 228° |
| 2026-05-05 15:12 | 40.74278 | -2.70126 | 14706 ft | 296 kts | 228° |
| 2026-05-05 15:12 | 40.72853 | -2.72042 | 14576 ft | 288 kts | 228° |
| 2026-05-05 15:12 | 40.71470 | -2.73893 | 14438 ft | 279 kts | 228° |
| 2026-05-05 15:12 | 40.70127 | -2.75686 | 14319 ft | 271 kts | 228° |
| 2026-05-05 15:13 | 40.68823 | -2.77422 | 14215 ft | 262 kts | 228° |
| 2026-05-05 15:13 | 40.67557 | -2.79106 | 14104 ft | 255 kts | 228° |
| 2026-05-05 15:13 | 40.66322 | -2.80747 | 13991 ft | 249 kts | 228° |
| 2026-05-05 15:13 | 40.65044 | -2.82263 | 13818 ft | 248 kts | 218° |
| 2026-05-05 15:14 | 40.63579 | -2.83506 | 13610 ft | 253 kts | 214° |
| 2026-05-05 15:14 | 40.62054 | -2.84699 | 13380 ft | 257 kts | 214° |
| 2026-05-05 15:14 | 40.60507 | -2.85902 | 13169 ft | 260 kts | 214° |
| 2026-05-05 15:14 | 40.58943 | -2.87128 | 12921 ft | 263 kts | 214° |
| 2026-05-05 15:15 | 40.57381 | -2.88362 | 12694 ft | 260 kts | 214° |
| 2026-05-05 15:15 | 40.55843 | -2.89584 | 12462 ft | 258 kts | 214° |
| 2026-05-05 15:15 | 40.54319 | -2.90800 | 12228 ft | 255 kts | 214° |
| 2026-05-05 15:15 | 40.52814 | -2.92006 | 12000 ft | 252 kts | 215° |
| 2026-05-05 15:16 | 40.51324 | -2.93200 | 11787 ft | 250 kts | 214° |
| 2026-05-05 15:16 | 40.49845 | -2.94386 | 11574 ft | 249 kts | 215° |
| 2026-05-05 15:16 | 40.48372 | -2.95569 | 11355 ft | 248 kts | 214° |
| 2026-05-05 15:16 | 40.46896 | -2.96755 | 11139 ft | 249 kts | 215° |
| 2026-05-05 15:17 | 40.45409 | -2.97948 | 10917 ft | 251 kts | 214° |
| 2026-05-05 15:17 | 40.43924 | -2.99138 | 10699 ft | 250 kts | 214° |
| 2026-05-05 15:17 | 40.42445 | -3.00322 | 10483 ft | 248 kts | 215° |
| 2026-05-05 15:17 | 40.40974 | -3.01501 | 10255 ft | 247 kts | 215° |
| 2026-05-05 15:18 | 40.39508 | -3.02674 | 10041 ft | 246 kts | 215° |
| 2026-05-05 15:18 | 40.38048 | -3.03842 | 9828 ft | 245 kts | 215° |
| 2026-05-05 15:18 | 40.36587 | -3.05011 | 9587 ft | 246 kts | 215° |
| 2026-05-05 15:18 | 40.35131 | -3.06175 | 9345 ft | 245 kts | 215° |
| 2026-05-05 15:19 | 40.33680 | -3.07335 | 9136 ft | 244 kts | 215° |
| 2026-05-05 15:19 | 40.32251 | -3.08477 | 8910 ft | 243 kts | 215° |
| 2026-05-05 15:19 | 40.30812 | -3.09626 | 8708 ft | 242 kts | 215° |
| 2026-05-05 15:19 | 40.29379 | -3.10768 | 8496 ft | 240 kts | 215° |
| 2026-05-05 15:20 | 40.27957 | -3.11901 | 8290 ft | 238 kts | 215° |
| 2026-05-05 15:20 | 40.26729 | -3.13293 | 8056 ft | 232 kts | 240° |
| 2026-05-05 15:20 | 40.26187 | -3.15229 | 7882 ft | 226 kts | 264° |
| 2026-05-05 15:20 | 40.26251 | -3.17277 | 7701 ft | 226 kts | 278° |
| 2026-05-05 15:21 | 40.26519 | -3.19314 | 7500 ft | 228 kts | 280° |
| 2026-05-05 15:21 | 40.26808 | -3.21367 | 7290 ft | 230 kts | 280° |
| 2026-05-05 15:21 | 40.27094 | -3.23423 | 7076 ft | 229 kts | 280° |
| 2026-05-05 15:21 | 40.27375 | -3.25470 | 6864 ft | 227 kts | 279° |
| 2026-05-05 15:22 | 40.27646 | -3.27491 | 6671 ft | 224 kts | 279° |
| 2026-05-05 15:22 | 40.27912 | -3.29498 | 6471 ft | 223 kts | 279° |
| 2026-05-05 15:22 | 40.28175 | -3.31481 | 6252 ft | 219 kts | 281° |
| 2026-05-05 15:22 | 40.28772 | -3.33282 | 6061 ft | 215 kts | 303° |
| 2026-05-05 15:23 | 40.29700 | -3.34803 | 5879 ft | 213 kts | 308° |
| 2026-05-05 15:23 | 40.30660 | -3.36266 | 5695 ft | 210 kts | 308° |
| 2026-05-05 15:23 | 40.31618 | -3.37702 | 5506 ft | 209 kts | 311° |
| 2026-05-05 15:23 | 40.32787 | -3.38844 | 5342 ft | 209 kts | 323° |
| 2026-05-05 15:24 | 40.33935 | -3.39915 | 5204 ft | 198 kts | 318° |
| 2026-05-05 15:24 | 40.35004 | -3.41006 | 4979 ft | 192 kts | 317° |
| 2026-05-05 15:24 | 40.36046 | -3.42075 | 4742 ft | 187 kts | 317° |
| 2026-05-05 15:24 | 40.37050 | -3.43100 | 4496 ft | 177 kts | 317° |
| 2026-05-05 15:25 | 40.37986 | -3.44055 | 4265 ft | 163 kts | 317° |
| 2026-05-05 15:25 | 40.38847 | -3.44936 | 4083 ft | 150 kts | 317° |
| 2026-05-05 15:25 | 40.39657 | -3.45762 | 3864 ft | 146 kts | 317° |
| 2026-05-05 15:25 | 40.40446 | -3.46568 | 3662 ft | 142 kts | 317° |
| 2026-05-05 15:26 | 40.41226 | -3.47365 | 3488 ft | 142 kts | 317° |
| 2026-05-05 15:26 | 40.42013 | -3.48169 | 3312 ft | 144 kts | 317° |
| 2026-05-05 15:26 | 40.42799 | -3.48969 | 3114 ft | 141 kts | 317° |
| 2026-05-05 15:26 | 40.43570 | -3.49757 | 2897 ft | 140 kts | 317° |
| 2026-05-05 15:27 | 40.44348 | -3.50551 | 2711 ft | 144 kts | 317° |
| 2026-05-05 15:27 | 40.45159 | -3.51366 | 2514 ft | 148 kts | 317° |
| 2026-05-05 15:27 | 40.45961 | -3.52205 | 2292 ft | 146 kts | 318° |
| 2026-05-05 15:27 | 40.46754 | -3.53011 | 2147 ft | 143 kts | 318° |
| 2026-05-05 15:28 | 40.47539 | -3.53804 | 1987 ft | 140 kts | 318° |
| 2026-05-05 15:28 | 40.48225 | -3.54500 | 1980 ft | 105 kts | 322° |
| 2026-05-05 15:28 | 40.48678 | -3.54963 | 1979 ft | 58 kts | 323° |
| 2026-05-05 15:28 | 40.48942 | -3.55227 | 1983 ft | 40 kts | 322° |
| 2026-05-05 15:29 | 40.49107 | -3.55403 | 1979 ft | 26 kts | 317° |
| 2026-05-05 15:29 | 40.49206 | -3.55594 | 1981 ft | 25 kts | 297° |
| 2026-05-05 15:29 | 40.49273 | -3.55792 | 1981 ft | 23 kts | 292° |
| 2026-05-05 15:29 | 40.49303 | -3.55987 | 1979 ft | 21 kts | 268° |
| 2026-05-05 15:30 | 40.49298 | -3.56157 | 1979 ft | 13 kts | 268° |
| 2026-05-05 15:30 | 40.49297 | -3.56173 | 1979 ft | 0 kts | 268° |
| 2026-05-05 15:31 | 40.49297 | -3.56187 | 1979 ft | 5 kts | 267° |
| 2026-05-05 15:31 | 40.49270 | -3.56243 | 1982 ft | 10 kts | 204° |
| 2026-05-05 15:31 | 40.49184 | -3.56249 | 1979 ft | 14 kts | 180° |
| 2026-05-05 15:31 | 40.49074 | -3.56249 | 1979 ft | 17 kts | 180° |
| 2026-05-05 15:32 | 40.48948 | -3.56249 | 1979 ft | 17 kts | 180° |
| 2026-05-05 15:32 | 40.48831 | -3.56249 | 1979 ft | 13 kts | 180° |
| 2026-05-05 15:32 | 40.48768 | -3.56322 | 1983 ft | 14 kts | 268° |
| 2026-05-05 15:32 | 40.48768 | -3.56462 | 1981 ft | 15 kts | 269° |
| 2026-05-05 15:33 | 40.48767 | -3.56582 | 1983 ft | 14 kts | 269° |
| 2026-05-05 15:33 | 40.48767 | -3.56719 | 1981 ft | 16 kts | 270° |
| 2026-05-05 15:33 | 40.48767 | -3.56875 | 1981 ft | 18 kts | 269° |
| 2026-05-05 15:33 | 40.48791 | -3.56995 | 1980 ft | 14 kts | 329° |
| 2026-05-05 15:34 | 40.48895 | -3.57006 | 1979 ft | 17 kts | 0° |
| 2026-05-05 15:34 | 40.48994 | -3.57005 | 1979 ft | 10 kts | 0° |
| 2026-05-05 15:34 | 40.49029 | -3.57014 | 1982 ft | 1 kts | 340° |
| 2026-05-05 15:34 | 40.49032 | -3.57016 | 1981 ft | 0 kts | 338° |
| 2026-05-05 15:35 | 40.49039 | -3.57022 | 1980 ft | 3 kts | 323° |
| 2026-05-05 15:35 | 40.49058 | -3.57074 | 1982 ft | 10 kts | 289° |
| 2026-05-05 15:35 | 40.49124 | -3.57122 | 1980 ft | 14 kts | 359° |
| 2026-05-05 15:35 | 40.49226 | -3.57124 | 1979 ft | 13 kts | 359° |
| 2026-05-05 15:36 | 40.49292 | -3.57062 | 1981 ft | 14 kts | 65° |
| 2026-05-05 15:36 | 40.49350 | -3.57010 | 1981 ft | 8 kts | 4° |
| 2026-05-05 15:36 | 40.49406 | -3.56986 | 1982 ft | 9 kts | 71° |
| 2026-05-05 15:36 | 40.49409 | -3.56889 | 1981 ft | 8 kts | 92° |
| 2026-05-05 15:37 | 40.49408 | -3.56872 | 1982 ft | 0 kts | 93° |